createdAt,value
2018-09-28T00:01:27.828Z,102129.68
2018-09-28T00:03:56.720Z,102117.53
2018-09-28T00:06:25.543Z,102115.22
2018-09-28T00:08:54.397Z,102111.56
2018-09-28T00:11:23.215Z,102115.77
2018-09-28T00:13:52.033Z,102120.84
2018-09-28T00:16:20.923Z,102118.06
2018-09-28T00:18:49.738Z,102107.55
2018-09-28T00:21:18.562Z,102109.15
2018-09-28T00:23:47.455Z,102104.84
2018-09-28T00:26:16.301Z,102102.95
2018-09-28T00:28:45.130Z,102098.73
2018-09-28T00:31:13.996Z,102099.20
2018-09-28T00:33:42.818Z,102092.25
2018-09-28T00:36:11.710Z,102084.66
2018-09-28T00:38:40.564Z,102086.16
2018-09-28T00:41:09.390Z,102084.15
2018-09-28T00:43:38.291Z,102086.20
2018-09-28T00:46:07.199Z,102084.64
2018-09-28T00:48:36.043Z,102087.09
2018-09-28T00:51:05.003Z,102076.55
2018-09-28T00:53:33.831Z,102075.27
2018-09-28T00:56:07.785Z,102062.33
2018-09-28T00:58:36.639Z,102066.84
2018-09-28T01:01:05.470Z,102070.67
2018-09-28T01:03:34.306Z,102069.84
2018-09-28T01:06:03.261Z,102069.48
2018-09-28T01:08:32.135Z,102069.56
2018-09-28T01:11:00.982Z,102065.20
2018-09-28T01:13:29.822Z,102054.70
2018-09-28T01:15:58.713Z,102053.91
2018-09-28T01:18:27.542Z,102045.48
2018-09-28T01:20:56.457Z,102044.98
2018-09-28T01:23:25.312Z,102050.30
2018-09-28T01:25:54.133Z,102049.78
2018-09-28T01:28:22.973Z,102048.25
2018-09-28T01:30:51.910Z,102044.64
2018-09-28T01:33:20.738Z,102043.23
2018-09-28T01:35:49.545Z,102039.63
2018-09-28T01:38:18.386Z,102036.68
2018-09-28T01:40:47.221Z,102045.59
2018-09-28T01:43:16.059Z,102046.08
2018-09-28T01:45:44.926Z,102047.02
2018-09-28T01:48:13.766Z,102057.63
2018-09-28T01:50:42.597Z,102058.41
2018-09-28T01:53:11.485Z,102060.92
2018-09-28T01:55:40.304Z,102058.47
2018-09-28T01:58:09.117Z,102067.98
2018-09-28T02:00:37.979Z,102059.31
2018-09-28T02:03:06.874Z,102053.48
2018-09-28T02:05:35.718Z,102054.61
2018-09-28T02:08:04.586Z,102056.48
2018-09-28T02:10:33.381Z,102059.42
2018-09-28T02:13:02.202Z,102066.02
2018-09-28T02:15:31.073Z,102071.63
2018-09-28T02:17:59.910Z,102078.20
2018-09-28T02:20:28.735Z,102081.09
2018-09-28T02:22:57.557Z,102081.78
2018-09-28T02:25:26.414Z,102080.49
2018-09-28T02:27:55.246Z,102078.48
2018-09-28T02:30:24.093Z,102076.40
2018-09-28T02:32:52.939Z,102070.25
2018-09-28T02:35:21.818Z,102061.45
2018-09-28T02:37:50.916Z,102048.41
2018-09-28T02:40:19.791Z,102048.33
2018-09-28T02:42:48.646Z,102035.05
2018-09-28T02:45:17.485Z,102021.03
2018-09-28T02:47:46.368Z,102016.58
2018-09-28T02:50:16.628Z,102002.39
2018-09-28T02:52:45.448Z,101982.55
2018-09-28T02:55:14.270Z,101975.06
2018-09-28T02:57:43.174Z,101976.73
2018-09-28T03:00:12.068Z,101985.27
2018-09-28T03:02:40.902Z,101999.86
2018-09-28T03:05:09.808Z,102021.05
2018-09-28T03:07:38.655Z,102041.19
2018-09-28T03:10:07.546Z,102050.34
2018-09-28T03:12:36.411Z,102048.80
2018-09-28T03:15:06.581Z,102035.47
2018-09-28T03:17:35.479Z,102022.36
2018-09-28T03:20:04.395Z,102014.70
2018-09-28T03:22:33.258Z,101997.92
2018-09-28T03:25:02.124Z,102002.73
2018-09-28T03:27:31.514Z,102017.41
2018-09-28T03:30:00.387Z,102027.94
2018-09-28T03:32:30.669Z,102043.08
2018-09-28T03:34:59.502Z,102043.25
2018-09-28T03:37:28.350Z,102038.98
2018-09-28T03:39:58.574Z,102033.52
2018-09-28T03:42:27.428Z,102028.23
2018-09-28T03:44:56.280Z,102021.55
2018-09-28T03:47:25.374Z,102020.08
2018-09-28T03:49:54.201Z,102018.66
2018-09-28T03:52:23.026Z,102020.61
2018-09-28T03:54:53.155Z,102022.87
2018-09-28T03:57:21.988Z,102025.95
2018-09-28T03:59:50.826Z,102026.59
2018-09-28T04:02:21.274Z,102025.33
2018-09-28T04:04:50.085Z,102014.59
2018-09-28T04:07:18.893Z,102001.68
2018-09-28T04:09:48.985Z,102001.88
2018-09-28T04:12:17.782Z,102004.51
2018-09-28T04:14:46.630Z,102004.11
2018-09-28T04:17:16.703Z,102007.78
2018-09-28T04:19:45.530Z,102000.09
2018-09-28T04:22:14.349Z,101999.34
2018-09-28T04:24:43.229Z,101995.20
2018-09-28T04:27:12.067Z,102002.04
2018-09-28T04:29:42.170Z,102004.23
2018-09-28T04:32:11.059Z,102007.53
2018-09-28T04:34:39.865Z,102007.92
2018-09-28T04:37:08.690Z,102004.58
2018-09-28T04:39:37.585Z,102008.66
2018-09-28T04:42:06.425Z,102005.52
2018-09-28T04:44:35.279Z,102004.84
2018-09-28T04:47:04.284Z,102000.48
2018-09-28T04:49:33.134Z,102004.03
2018-09-28T04:52:01.973Z,101997.55
2018-09-28T04:54:30.873Z,102000.76
2018-09-28T04:56:59.689Z,101994.67
2018-09-28T04:59:28.525Z,101989.95
2018-09-28T05:01:57.494Z,101985.48
2018-09-28T05:04:26.375Z,101991.81
2018-09-28T05:06:55.191Z,101991.50
2018-09-28T05:09:24.066Z,101989.05
2018-09-28T05:11:52.882Z,101985.04
2018-09-28T05:14:21.742Z,101984.94
2018-09-28T05:16:50.637Z,101982.36
2018-09-28T05:19:19.506Z,101985.00
2018-09-28T05:21:48.320Z,101990.37
2018-09-28T05:24:17.263Z,101985.72
2018-09-28T05:26:46.082Z,101974.61
2018-09-28T05:29:15.006Z,101970.72
2018-09-28T05:31:43.948Z,101969.08
2018-09-28T05:34:12.715Z,101973.50
2018-09-28T05:36:41.540Z,101972.21
2018-09-28T05:39:10.752Z,101970.34
2018-09-28T05:41:39.563Z,101972.67
2018-09-28T05:44:08.701Z,101974.66
2018-09-28T05:46:37.649Z,101984.84
2018-09-28T05:49:06.675Z,101983.83
2018-09-28T05:51:35.603Z,101990.31
2018-09-28T05:54:04.426Z,101987.46
2018-09-28T05:56:33.228Z,101986.48
2018-09-28T05:59:07.066Z,101990.53
2018-09-28T06:01:41.008Z,101990.30
2018-09-28T06:04:14.977Z,101996.95
2018-09-28T06:06:43.891Z,101994.99
2018-09-28T06:09:12.970Z,101987.46
2018-09-28T06:11:41.801Z,101981.84
2018-09-28T06:14:10.633Z,101982.48
2018-09-28T06:16:39.553Z,101980.62
2018-09-28T06:19:08.383Z,101985.53
2018-09-28T06:21:37.207Z,101973.23
2018-09-28T06:24:06.689Z,101983.27
2018-09-28T06:26:35.594Z,101976.61
2018-09-28T06:29:04.450Z,101974.00
2018-09-28T06:31:33.297Z,101965.58
2018-09-28T06:34:02.164Z,101969.97
2018-09-28T06:36:31.019Z,101969.63
2018-09-28T06:38:59.833Z,101969.10
2018-09-28T06:41:28.732Z,101973.00
2018-09-28T06:43:57.578Z,101973.30
2018-09-28T06:46:26.508Z,101967.22
2018-09-28T06:48:55.608Z,101964.75
2018-09-28T06:51:24.658Z,101964.52
2018-09-28T06:53:53.460Z,101960.95
2018-09-28T06:56:23.724Z,101954.67
2018-09-28T06:58:52.618Z,101941.16
2018-09-28T07:01:21.430Z,101951.26
2018-09-28T07:03:50.522Z,101951.31
2018-09-28T07:06:19.401Z,101953.74
2018-09-28T07:08:48.186Z,101947.89
2018-09-28T07:11:18.442Z,101947.16
2018-09-28T07:13:47.294Z,101936.70
2018-09-28T07:16:16.268Z,101938.11
2018-09-28T07:18:45.058Z,101925.19
2018-09-28T07:21:13.896Z,101929.59
2018-09-28T07:23:44.195Z,101928.20
2018-09-28T07:26:13.043Z,101926.12
2018-09-28T07:28:41.944Z,101924.60
2018-09-28T07:31:10.840Z,101921.14
2018-09-28T07:33:39.701Z,101922.81
2018-09-28T07:36:08.886Z,101914.59
2018-09-28T07:38:38.929Z,101910.92
2018-09-28T07:41:07.850Z,101912.21
2018-09-28T07:43:36.750Z,101904.66
2018-09-28T07:46:07.108Z,101894.48
2018-09-28T07:48:36.162Z,101898.75
2018-09-28T07:51:05.001Z,101897.75
2018-09-28T07:53:33.854Z,101893.66
2018-09-28T07:56:02.781Z,101892.73
2018-09-28T07:58:31.681Z,101893.09
2018-09-28T08:01:00.574Z,101895.00
2018-09-28T08:03:30.258Z,101894.34
2018-09-28T08:06:00.380Z,101892.66
2018-09-28T08:08:29.470Z,101890.45
2018-09-28T08:10:58.310Z,101887.56
2018-09-28T08:13:27.150Z,101893.08
2018-09-28T08:15:56.050Z,101887.30
2018-09-28T08:18:24.925Z,101875.10
2018-09-28T08:20:53.835Z,101882.97
2018-09-28T08:23:22.733Z,101889.22
2018-09-28T08:25:51.593Z,101884.56
2018-09-28T08:28:20.546Z,101882.59
2018-09-28T08:30:49.442Z,101873.08
2018-09-28T08:33:18.329Z,101872.56
2018-09-28T08:35:48.426Z,101877.19
2018-09-28T08:38:17.260Z,101868.55
2018-09-28T08:40:46.241Z,101869.48
2018-09-28T08:43:15.151Z,101865.95
2018-09-28T08:45:43.970Z,101834.97
2018-09-28T08:48:12.860Z,101850.25
2018-09-28T08:50:41.726Z,101839.14
2018-09-28T08:53:10.609Z,101846.58
2018-09-28T08:55:39.552Z,101850.51
2018-09-28T08:58:09.063Z,101844.37
2018-09-28T09:00:37.975Z,101849.44
2018-09-28T09:03:06.841Z,101840.45
2018-09-28T09:05:35.754Z,101840.05
2018-09-28T09:08:04.778Z,101841.62
2018-09-28T09:10:33.597Z,101836.06
2018-09-28T09:13:02.461Z,101827.75
2018-09-28T09:15:31.448Z,101818.82
2018-09-28T09:18:00.493Z,101825.97
2018-09-28T09:20:29.332Z,101825.98
2018-09-28T09:22:59.626Z,101824.44
2018-09-28T09:25:28.502Z,101816.70
2018-09-28T09:27:57.357Z,101803.91
2018-09-28T09:30:26.266Z,101809.66
2018-09-28T09:32:55.141Z,101812.22
2018-09-28T09:35:23.986Z,101806.28
2018-09-28T09:37:52.922Z,101807.52
2018-09-28T09:40:21.866Z,101799.32
2018-09-28T09:42:50.722Z,101801.48
2018-09-28T09:45:19.606Z,101798.45
2018-09-28T09:47:48.486Z,101794.14
2018-09-28T09:50:17.451Z,101784.71
2018-09-28T09:52:46.360Z,101790.73
2018-09-28T09:55:15.465Z,101779.69
2018-09-28T09:57:44.445Z,101786.56
2018-09-28T10:00:17.544Z,101784.58
2018-09-28T10:02:51.483Z,101784.94
2018-09-28T10:05:20.470Z,101778.93
2018-09-28T10:07:49.384Z,101779.67
2018-09-28T10:10:18.301Z,101773.03
2018-09-28T10:12:47.332Z,101775.48
2018-09-28T10:15:16.357Z,101771.48
2018-09-28T10:17:46.796Z,101768.00
2018-09-28T10:20:15.749Z,101770.16
2018-09-28T10:22:44.681Z,101760.51
2018-09-28T10:25:13.673Z,101753.34
2018-09-28T10:27:42.637Z,101755.00
2018-09-28T10:30:11.550Z,101741.86
2018-09-28T10:32:43.216Z,101738.03
2018-09-28T10:35:12.153Z,101741.13
2018-09-28T10:37:41.101Z,101739.11
2018-09-28T10:40:10.359Z,101742.10
2018-09-28T10:42:39.300Z,101740.08
2018-09-28T10:45:08.259Z,101730.82
2018-09-28T10:47:37.167Z,101728.37
2018-09-28T10:50:06.063Z,101730.38
2018-09-28T10:52:34.964Z,101728.80
2018-09-28T10:55:03.826Z,101724.75
2018-09-28T10:57:32.682Z,101720.09
2018-09-28T11:00:01.543Z,101714.73
2018-09-28T11:02:31.708Z,101707.20
2018-09-28T11:05:00.591Z,101702.17
2018-09-28T11:07:29.448Z,101703.24
2018-09-28T11:09:58.325Z,101696.39
2018-09-28T11:12:27.182Z,101702.23
2018-09-28T11:14:56.150Z,101696.16
2018-09-28T11:17:25.049Z,101692.11
2018-09-28T11:19:53.927Z,101683.09
2018-09-28T11:22:22.813Z,101670.02
2018-09-28T11:24:51.852Z,101669.23
2018-09-28T11:27:20.857Z,101671.34
2018-09-28T11:29:49.737Z,101662.69
2018-09-28T11:32:18.598Z,101660.56
2018-09-28T11:34:47.593Z,101659.14
2018-09-28T11:37:16.562Z,101652.86
2018-09-28T11:39:45.462Z,101645.81
2018-09-28T11:42:14.315Z,101636.65
2018-09-28T11:44:44.523Z,101634.84
2018-09-28T11:47:13.359Z,101629.67
2018-09-28T11:49:42.199Z,101620.87
2018-09-28T11:52:12.435Z,101617.02
2018-09-28T11:54:41.307Z,101617.58
2018-09-28T11:57:10.130Z,101611.93
2018-09-28T11:59:40.522Z,101614.97
2018-09-28T12:02:09.670Z,101600.99
2018-09-28T12:04:38.521Z,101600.84
2018-09-28T12:07:07.556Z,101605.55
2018-09-28T12:09:36.449Z,101598.94
2018-09-28T12:12:05.364Z,101600.66
2018-09-28T12:14:34.283Z,101594.17
2018-09-28T12:17:03.350Z,101596.02
2018-09-28T12:19:32.192Z,101591.71
2018-09-28T12:22:01.096Z,101588.31
2018-09-28T12:24:29.981Z,101586.56
2018-09-28T12:26:58.855Z,101590.22
2018-09-28T12:29:27.789Z,101587.41
2018-09-28T12:31:58.024Z,101583.57
2018-09-28T12:34:26.948Z,101590.76
2018-09-28T12:36:55.871Z,101581.54
2018-09-28T12:39:25.033Z,101579.05
2018-09-28T12:41:55.231Z,101575.72
2018-09-28T12:44:24.297Z,101577.33
2018-09-28T12:46:53.386Z,101572.23
2018-09-28T12:49:22.365Z,101564.47
2018-09-28T12:51:51.278Z,101565.12
2018-09-28T12:54:20.253Z,101562.83
2018-09-28T12:56:51.885Z,101559.50
2018-09-28T12:59:20.825Z,101560.86
2018-09-28T13:01:49.745Z,101554.32
2018-09-28T13:04:19.485Z,101554.30
2018-09-28T13:06:50.085Z,101551.10
2018-09-28T13:09:19.039Z,101543.91
2018-09-28T13:11:47.971Z,101542.80
2018-09-28T13:14:16.948Z,101538.44
2018-09-28T13:16:45.906Z,101524.15
2018-09-28T13:19:14.948Z,101533.24
2018-09-28T13:21:43.869Z,101528.59
2018-09-28T13:24:12.794Z,101521.13
2018-09-28T13:26:41.676Z,101522.58
2018-09-28T13:29:10.576Z,101520.10
2018-09-28T13:31:39.586Z,101516.27
2018-09-28T13:34:08.450Z,101514.33
2018-09-28T13:36:37.410Z,101513.02
2018-09-28T13:39:08.354Z,101497.44
2018-09-28T13:41:37.387Z,101501.44
2018-09-28T13:44:06.462Z,101496.96
2018-09-28T13:46:35.399Z,101493.67
2018-09-28T13:49:04.256Z,101492.61
2018-09-28T13:51:33.123Z,101479.22
2018-09-28T13:54:02.023Z,101485.94
2018-09-28T13:56:30.854Z,101483.66
2018-09-28T13:59:00.017Z,101476.61
2018-09-28T14:01:28.949Z,101470.82
2018-09-28T14:03:57.770Z,101473.89
2018-09-28T14:06:26.716Z,101464.06
2018-09-28T14:08:55.566Z,101465.08
2018-09-28T14:11:24.610Z,101465.61
2018-09-28T14:13:53.551Z,101455.92
2018-09-28T14:16:22.465Z,101451.32
2018-09-28T14:18:51.524Z,101453.13
2018-09-28T14:21:20.315Z,101453.23
2018-09-28T14:23:49.187Z,101459.77
2018-09-28T14:26:18.107Z,101463.66
2018-09-28T14:28:47.090Z,101460.35
2018-09-28T14:31:15.960Z,101453.70
2018-09-28T14:33:44.825Z,101461.91
2018-09-28T14:36:13.689Z,101466.47
2018-09-28T14:38:42.532Z,101457.86
2018-09-28T14:41:11.375Z,101458.92
2018-09-28T14:43:41.590Z,101452.03
2018-09-28T14:46:10.736Z,101455.75
2018-09-28T14:48:39.624Z,101453.59
2018-09-28T14:51:08.514Z,101454.46
2018-09-28T14:53:37.581Z,101444.41
2018-09-28T14:56:06.503Z,101444.75
2018-09-28T14:58:36.787Z,101435.56
2018-09-28T15:01:07.218Z,101434.70
2018-09-28T15:03:36.030Z,101420.80
2018-09-28T15:06:04.903Z,101421.83
2018-09-28T15:08:33.730Z,101414.17
2018-09-28T15:11:02.714Z,101410.91
2018-09-28T15:13:31.908Z,101409.08
2018-09-28T15:16:00.751Z,101407.30
2018-09-28T15:18:29.605Z,101401.53
2018-09-28T15:20:58.486Z,101395.85
2018-09-28T15:23:27.368Z,101393.37
2018-09-28T15:25:56.286Z,101395.30
2018-09-28T15:28:25.159Z,101398.67
2018-09-28T15:30:53.961Z,101389.87
2018-09-28T15:33:22.774Z,101389.47
2018-09-28T15:35:52.997Z,101389.61
2018-09-28T15:38:21.888Z,101396.34
2018-09-28T15:40:50.766Z,101389.66
2018-09-28T15:43:19.635Z,101394.58
2018-09-28T15:45:48.834Z,101399.79
2018-09-28T15:48:17.666Z,101397.07
2018-09-28T15:50:46.513Z,101396.98
2018-09-28T15:53:15.322Z,101402.86
2018-09-28T15:55:44.177Z,101403.02
2018-09-28T15:58:13.062Z,101395.67
2018-09-28T16:00:41.895Z,101399.39
2018-09-28T16:03:10.715Z,101403.31
2018-09-28T16:05:39.577Z,101403.20
2018-09-28T16:08:08.399Z,101395.20
2018-09-28T16:10:37.218Z,101391.00
2018-09-28T16:13:06.110Z,101391.98
2018-09-28T16:15:34.934Z,101391.12
2018-09-28T16:18:03.758Z,101389.81
2018-09-28T16:20:32.608Z,101391.24
2018-09-28T16:23:02.728Z,101386.11
2018-09-28T16:25:31.519Z,101382.39
2018-09-28T16:28:01.791Z,101379.41
2018-09-28T16:30:30.605Z,101368.82
2018-09-28T16:32:59.413Z,101374.64
2018-09-28T16:35:29.702Z,101376.77
2018-09-28T16:37:58.634Z,101374.14
2018-09-28T16:40:27.510Z,101372.84
2018-09-28T16:42:57.570Z,101364.38
2018-09-28T16:45:26.567Z,101356.39
2018-09-28T16:47:56.856Z,101362.58
2018-09-28T16:50:25.747Z,101365.94
2018-09-28T16:52:54.631Z,101367.22
2018-09-28T16:55:23.466Z,101359.44
2018-09-28T16:57:52.403Z,101365.89
2018-09-28T17:00:21.195Z,101367.63
2018-09-28T17:02:50.122Z,101369.62
2018-09-28T17:05:18.967Z,101369.25
2018-09-28T17:07:49.087Z,101374.25
2018-09-28T17:10:17.910Z,101374.86
2018-09-28T17:12:46.763Z,101372.81
2018-09-28T17:15:15.591Z,101371.27
2018-09-28T17:17:44.551Z,101370.56
2018-09-28T17:20:13.420Z,101379.83
2018-09-28T17:22:43.501Z,101366.97
2018-09-28T17:25:12.511Z,101367.67
2018-09-28T17:27:41.374Z,101368.28
2018-09-28T17:30:11.460Z,101374.79
2018-09-28T17:32:40.368Z,101376.80
2018-09-28T17:35:09.271Z,101367.87
2018-09-28T17:37:38.144Z,101367.50
2018-09-28T17:40:08.375Z,101369.75
2018-09-28T17:42:37.223Z,101374.55
2018-09-28T17:45:06.330Z,101375.59
2018-09-28T17:47:35.187Z,101377.80
2018-09-28T17:50:04.063Z,101371.71
2018-09-28T17:52:32.884Z,101378.39
2018-09-28T17:55:01.703Z,101371.84
2018-09-28T17:57:30.579Z,101371.22
2018-09-28T17:59:59.475Z,101368.87
2018-09-28T18:02:28.320Z,101370.08
2018-09-28T18:04:57.212Z,101367.52
2018-09-28T18:07:26.056Z,101373.88
2018-09-28T18:09:55.106Z,101373.03
2018-09-28T18:12:24.028Z,101378.65
2018-09-28T18:14:52.904Z,101381.14
2018-09-28T18:17:21.837Z,101370.70
2018-09-28T18:19:50.767Z,101376.21
2018-09-28T18:22:19.676Z,101373.91
2018-09-28T18:24:48.593Z,101369.95
2018-09-28T18:27:17.936Z,101369.05
2018-09-28T18:29:46.748Z,101365.42
2018-09-28T18:32:15.570Z,101367.11
2018-09-28T18:34:44.428Z,101371.12
2018-09-28T18:37:13.303Z,101366.98
2018-09-28T18:39:42.142Z,101364.37
2018-09-28T18:42:11.031Z,101358.89
2018-09-28T18:44:39.880Z,101352.60
2018-09-28T18:47:08.902Z,101360.26
2018-09-28T18:49:37.851Z,101369.06
2018-09-28T18:52:06.734Z,101358.89
2018-09-28T18:54:35.566Z,101359.52
2018-09-28T18:57:04.467Z,101357.58
2018-09-28T18:59:33.315Z,101366.80
2018-09-28T19:02:02.166Z,101365.82
2018-09-28T19:04:31.068Z,101358.48
2018-09-28T19:07:01.151Z,101357.98
2018-09-28T19:09:30.032Z,101352.58
2018-09-28T19:11:58.952Z,101355.06
2018-09-28T19:14:27.882Z,101351.05
2018-09-28T19:16:56.734Z,101358.81
2018-09-28T19:19:25.683Z,101355.11
2018-09-28T19:21:54.523Z,101341.95
2018-09-28T19:24:23.415Z,101342.48
2018-09-28T19:26:52.267Z,101345.51
2018-09-28T19:29:21.201Z,101339.88
2018-09-28T19:31:50.090Z,101337.13
2018-09-28T19:34:20.445Z,101329.41
2018-09-28T19:36:49.272Z,101332.59
2018-09-28T19:39:18.135Z,101332.53
2018-09-28T19:41:46.991Z,101331.59
2018-09-28T19:44:16.667Z,101328.52
2018-09-28T19:46:45.522Z,101323.66
2018-09-28T19:49:14.464Z,101325.69
2018-09-28T19:51:43.272Z,101336.14
2018-09-28T19:54:12.121Z,101327.98
2018-09-28T19:56:40.995Z,101329.14
2018-09-28T19:59:09.819Z,101323.30
2018-09-28T20:01:40.106Z,101321.98
2018-09-28T20:04:08.973Z,101315.78
2018-09-28T20:06:37.955Z,101302.86
2018-09-28T20:09:09.340Z,101296.98
2018-09-28T20:11:38.164Z,101299.22
2018-09-28T20:14:08.259Z,101298.61
2018-09-28T20:16:37.105Z,101299.86
2018-09-28T20:19:06.007Z,101307.38
2018-09-28T20:21:34.884Z,101312.01
2018-09-28T20:24:03.771Z,101312.69
2018-09-28T20:26:32.663Z,101300.64
2018-09-28T20:29:01.534Z,101306.59
2018-09-28T20:31:30.390Z,101309.39
2018-09-28T20:33:59.213Z,101312.72
2018-09-28T20:36:29.303Z,101317.89
2018-09-28T20:38:58.117Z,101308.03
2018-09-28T20:41:26.984Z,101306.50
2018-09-28T20:43:56.151Z,101309.48
2018-09-28T20:46:25.235Z,101307.03
2018-09-28T20:48:54.127Z,101307.59
2018-09-28T20:51:23.103Z,101316.31
2018-09-28T20:53:51.912Z,101310.72
2018-09-28T20:56:20.773Z,101302.63
2018-09-28T20:58:49.591Z,101304.20
2018-09-28T21:01:18.435Z,101301.37
2018-09-28T21:03:47.319Z,101300.72
2018-09-28T21:06:16.134Z,101300.23
2018-09-28T21:08:44.972Z,101298.48
2018-09-28T21:11:13.867Z,101297.62
2018-09-28T21:13:42.727Z,101297.02
2018-09-28T21:16:11.570Z,101292.56
2018-09-28T21:18:40.443Z,101294.03
2018-09-28T21:21:09.322Z,101295.42
2018-09-28T21:23:38.162Z,101294.55
2018-09-28T21:26:07.027Z,101294.16
2018-09-28T21:28:35.924Z,101289.95
2018-09-28T21:31:04.751Z,101285.38
2018-09-28T21:33:33.578Z,101283.38
2018-09-28T21:36:02.483Z,101281.79
2018-09-28T21:38:31.338Z,101278.89
2018-09-28T21:41:00.190Z,101280.57
2018-09-28T21:43:29.151Z,101281.79
2018-09-28T21:45:58.154Z,101280.56
2018-09-28T21:48:27.075Z,101286.04
2018-09-28T21:50:56.044Z,101286.25
2018-09-28T21:53:24.871Z,101281.11
2018-09-28T21:55:53.730Z,101280.93
2018-09-28T21:58:22.597Z,101276.52
2018-09-28T22:00:55.406Z,101282.29
2018-09-28T22:03:24.308Z,101274.92
2018-09-28T22:05:53.544Z,101273.62
2018-09-28T22:08:22.379Z,101278.68
2018-09-28T22:10:51.214Z,101284.61
2018-09-28T22:13:20.090Z,101277.70
2018-09-28T22:15:48.926Z,101274.63
2018-09-28T22:18:17.742Z,101281.56
2018-09-28T22:20:46.602Z,101286.03
2018-09-28T22:23:15.537Z,101280.27
2018-09-28T22:25:44.395Z,101272.20
2018-09-28T22:28:13.191Z,101270.39
2018-09-28T22:30:42.147Z,101271.85
2018-09-28T22:33:11.008Z,101277.39
2018-09-28T22:35:39.846Z,101275.10
2018-09-28T22:38:08.758Z,101277.25
2018-09-28T22:40:37.742Z,101277.25
2018-09-28T22:43:06.846Z,101265.25
2018-09-28T22:45:35.671Z,101272.40
2018-09-28T22:48:04.517Z,101268.73
2018-09-28T22:50:33.422Z,101267.80
2018-09-28T22:53:02.240Z,101263.48
2018-09-28T22:55:31.110Z,101257.66
2018-09-28T22:58:00.055Z,101266.43
2018-09-28T23:00:29.015Z,101265.66
2018-09-28T23:02:57.871Z,101259.72
2018-09-28T23:05:26.731Z,101254.86
2018-09-28T23:07:55.543Z,101254.48
2018-09-28T23:10:24.363Z,101245.80
2018-09-28T23:12:53.227Z,101246.95
2018-09-28T23:15:22.092Z,101244.38
2018-09-28T23:17:50.949Z,101239.38
2018-09-28T23:20:19.776Z,101239.06
2018-09-28T23:22:50.020Z,101242.45
2018-09-28T23:25:19.100Z,101232.81
2018-09-28T23:27:48.186Z,101228.92
2018-09-28T23:30:17.038Z,101228.92
2018-09-28T23:32:45.862Z,101227.80
2018-09-28T23:35:14.719Z,101222.47
2018-09-28T23:37:43.564Z,101210.72
2018-09-28T23:40:12.585Z,101213.94
2018-09-28T23:42:41.470Z,101207.79
2018-09-28T23:45:10.340Z,101210.09
2018-09-28T23:47:39.264Z,101204.32
2018-09-28T23:50:08.484Z,101211.06
2018-09-28T23:52:38.552Z,101207.73
2018-09-28T23:55:07.509Z,101205.30
2018-09-28T23:57:36.392Z,101199.53
